Time;durP1;ratioP1;P1;durP2;ratioP2;P2;SDS_P1;SDS_P2;PMS_P1;PMS_P2;Temp;Humidity;BMP_temperature;BMP_pressure;BME280_temperature;BME280_humidity;BME280_pressure;Samples;Min_cycle;Max_cycle;Signal;HPM_P1;HPM_P2
2022/08/19 00:01:59;;;;;;;8.30;7.60;;;;;;;;;;5047779;28;20205;-67
2022/08/19 00:04:32;;;;;;;8.47;7.67;;;;;;;;;;5052382;28;20284;-67
2022/08/19 00:07:03;;;;;;;8.10;7.50;;;;;;;;;;5066722;28;20627;-67
2022/08/19 00:09:32;;;;;;;8.17;7.47;;;;;;;;;;5050701;28;20193;-67
2022/08/19 00:12:01;;;;;;;8.37;7.67;;;;;;;;;;5031387;28;20211;-67
2022/08/19 00:14:32;;;;;;;8.30;7.60;;;;;;;;;;5064455;28;20745;-67
2022/08/19 00:17:03;;;;;;;8.13;7.33;;;;;;;;;;5063245;28;20232;-67
2022/08/19 00:19:40;;;;;;;8.37;7.57;;;;;;;;;;5050918;28;20545;-67
2022/08/19 00:22:17;;;;;;;9.07;8.27;;;;;;;;;;5062467;28;20757;-67
2022/08/19 00:24:49;;;;;;;10.37;7.80;;;;;;;;;;5037997;28;20651;-67
2022/08/19 00:27:22;;;;;;;8.20;7.53;;;;;;;;;;5064065;28;20187;-67
2022/08/19 00:29:56;;;;;;;8.93;8.13;;;;;;;;;;5067697;28;20202;-67
2022/08/19 00:32:25;;;;;;;8.47;7.67;;;;;;;;;;5053325;28;20193;-67
2022/08/19 00:35:01;;;;;;;8.17;7.47;;;;;;;;;;5066302;28;20185;-67
2022/08/19 00:37:34;;;;;;;8.60;7.67;;;;;;;;;;5060582;28;20213;-68
2022/08/19 00:40:08;;;;;;;8.73;7.67;;;;;;;;;;5058827;28;20206;-67
2022/08/19 00:42:40;;;;;;;7.40;6.80;;;;;;;;;;5066594;28;20221;-67
2022/08/19 00:45:12;;;;;;;8.80;8.00;;;;;;;;;;5064172;28;20194;-67
2022/08/19 00:47:43;;;;;;;7.90;7.20;;;;;;;;;;5064466;28;20202;-67
2022/08/19 00:50:16;;;;;;;8.70;7.30;;;;;;;;;;5063157;28;20212;-67
2022/08/19 00:52:48;;;;;;;8.40;7.67;;;;;;;;;;5055424;28;20212;-67
2022/08/19 00:55:21;;;;;;;7.70;7.07;;;;;;;;;;5048762;28;20631;-67
2022/08/19 00:58:02;;;;;;;7.87;7.17;;;;;;;;;;5061816;28;20209;-68
2022/08/19 01:00:36;;;;;;;8.23;7.53;;;;;;;;;;5057316;28;20241;-67
2022/08/19 01:03:11;;;;;;;7.80;7.10;;;;;;;;;;5067786;28;20228;-67
2022/08/19 01:05:42;;;;;;;8.30;7.50;;;;;;;;;;5061414;28;20194;-67
2022/08/19 01:08:15;;;;;;;7.83;7.10;;;;;;;;;;5058797;28;20190;-68
2022/08/19 01:10:51;;;;;;;7.50;6.90;;;;;;;;;;5047050;28;20197;-67
2022/08/19 01:13:31;;;;;;;7.87;7.27;;;;;;;;;;5061502;28;20222;-68
2022/08/19 01:16:19;;;;;;;7.50;6.80;;;;;;;;;;5055502;28;20205;-67
2022/08/19 01:18:48;;;;;;;7.77;7.17;;;;;;;;;;5048977;28;20649;-67
2022/08/19 01:21:36;;;;;;;8.17;7.47;;;;;;;;;;5054089;28;20198;-67
2022/08/19 01:24:07;;;;;;;8.00;7.27;;;;;;;;;;5043694;28;20738;-67
2022/08/19 01:26:44;;;;;;;7.60;6.97;;;;;;;;;;5052993;28;20221;-66
2022/08/19 01:29:21;;;;;;;8.20;7.50;;;;;;;;;;5044802;28;20213;-65
2022/08/19 01:31:53;;;;;;;7.70;7.00;;;;;;;;;;5058594;28;20645;-68
2022/08/19 01:34:25;;;;;;;8.67;7.07;;;;;;;;;;5050800;28;20205;-67
2022/08/19 01:36:56;;;;;;;7.80;7.20;;;;;;;;;;5052155;28;20706;-67
2022/08/19 01:39:25;;;;;;;7.93;7.23;;;;;;;;;;5065340;28;20214;-67
2022/08/19 01:41:56;;;;;;;7.97;7.20;;;;;;;;;;5054407;28;20281;-67
2022/08/19 01:44:26;;;;;;;8.00;7.20;;;;;;;;;;5066729;28;20202;-67
2022/08/19 01:46:58;;;;;;;9.33;7.70;;;;;;;;;;5068369;28;20197;-67
2022/08/19 01:49:29;;;;;;;11.27;7.30;;;;;;;;;;5037817;28;20827;-67
2022/08/19 01:52:01;;;;;;;7.53;6.87;;;;;;;;;;5052387;28;20213;-67
2022/08/19 01:54:30;;;;;;;8.03;7.33;;;;;;;;;;5062212;28;20206;-67
2022/08/19 01:57:13;;;;;;;7.83;7.13;;;;;;;;;;5071674;28;20289;-67
2022/08/19 01:59:44;;;;;;;7.63;6.97;;;;;;;;;;5029618;28;20329;-67
2022/08/19 02:02:18;;;;;;;7.70;7.00;;;;;;;;;;5042659;28;20635;-67
2022/08/19 02:04:50;;;;;;;8.20;6.50;;;;;;;;;;5039515;28;20275;-67
2022/08/19 02:07:23;;;;;;;7.80;7.13;;;;;;;;;;5046454;28;20219;-67
2022/08/19 02:09:50;;;;;;;7.60;7.00;;;;;;;;;;5040729;28;20213;-67
2022/08/19 02:12:20;;;;;;;7.83;7.23;;;;;;;;;;5022472;28;20217;-67
2022/08/19 02:14:52;;;;;;;8.20;7.50;;;;;;;;;;5039100;28;20198;-67
2022/08/19 02:17:24;;;;;;;7.67;7.07;;;;;;;;;;5039879;28;20281;-67
2022/08/19 02:19:55;;;;;;;8.20;7.60;;;;;;;;;;5045542;28;20246;-67
2022/08/19 02:22:29;;;;;;;8.33;7.63;;;;;;;;;;5037465;28;20209;-67
2022/08/19 02:25:00;;;;;;;8.47;7.77;;;;;;;;;;5034254;28;20264;-67
2022/08/19 02:27:30;;;;;;;8.17;7.47;;;;;;;;;;5040019;28;20745;-67
2022/08/19 02:30:00;;;;;;;8.07;7.40;;;;;;;;;;5034842;28;20560;-65
2022/08/19 02:32:33;;;;;;;8.17;7.47;;;;;;;;;;5033678;28;20206;-67
2022/08/19 02:35:14;;;;;;;8.30;7.70;;;;;;;;;;5027813;28;20190;-67
2022/08/19 02:40:36;;;;;;;8.50;7.70;;;;;;;;;;5023316;28;20742;-66
2022/08/19 02:43:15;;;;;;;8.47;7.30;;;;;;;;;;5030006;28;20200;-66
2022/08/19 02:45:54;;;;;;;8.03;7.23;;;;;;;;;;5042153;28;20190;-67
2022/08/19 02:48:24;;;;;;;8.10;7.40;;;;;;;;;;5023071;28;20214;-66
2022/08/19 02:50:56;;;;;;;8.00;7.30;;;;;;;;;;5034052;28;20225;-67
2022/08/19 02:53:29;;;;;;;8.27;7.60;;;;;;;;;;5018766;28;20277;-66
2022/08/19 02:56:08;;;;;;;7.67;7.07;;;;;;;;;;5028312;28;20261;-67
2022/08/19 02:58:39;;;;;;;7.83;7.23;;;;;;;;;;5022651;28;20257;-66
2022/08/19 03:01:07;;;;;;;7.00;6.50;;;;;;;;;;5037400;28;20233;-66
2022/08/19 03:03:40;;;;;;;7.40;6.80;;;;;;;;;;5041246;28;20209;-66
2022/08/19 03:06:14;;;;;;;7.70;7.00;;;;;;;;;;5040960;28;20198;-67
2022/08/19 03:08:49;;;;;;;7.27;6.67;;;;;;;;;;5026158;28;20681;-67
2022/08/19 03:11:42;;;;;;;7.40;6.70;;;;;;;;;;5030060;28;20186;-67
2022/08/19 03:14:19;;;;;;;7.23;6.27;;;;;;;;;;5045755;28;20751;-67
2022/08/19 03:16:54;;;;;;;7.30;6.70;;;;;;;;;;5027418;28;20191;-67
2022/08/19 03:19:25;;;;;;;6.67;6.17;;;;;;;;;;5036591;28;20635;-67
2022/08/19 03:21:56;;;;;;;6.60;6.10;;;;;;;;;;5033366;28;20210;-67
2022/08/19 03:24:30;;;;;;;7.63;6.93;;;;;;;;;;5045917;28;20597;-66
2022/08/19 03:27:14;;;;;;;7.13;6.53;;;;;;;;;;5038624;28;20259;-67
2022/08/19 03:29:47;;;;;;;6.93;6.33;;;;;;;;;;5044563;28;20260;-67
2022/08/19 03:32:19;;;;;;;7.13;6.53;;;;;;;;;;5044226;28;20389;-67
2022/08/19 03:35:03;;;;;;;7.43;6.73;;;;;;;;;;5051999;28;20190;-67
2022/08/19 03:37:35;;;;;;;8.27;6.77;;;;;;;;;;5045909;28;20203;-67
2022/08/19 03:40:10;;;;;;;7.20;6.60;;;;;;;;;;5046692;28;21163;-66
2022/08/19 03:42:43;;;;;;;7.50;6.90;;;;;;;;;;5048862;28;20232;-66
2022/08/19 03:45:17;;;;;;;8.07;7.37;;;;;;;;;;5036108;28;20195;-66
2022/08/19 03:48:00;;;;;;;7.57;6.87;;;;;;;;;;5040144;28;20370;-67
2022/08/19 03:50:33;;;;;;;8.03;7.33;;;;;;;;;;5035037;28;20539;-67
2022/08/19 03:53:08;;;;;;;8.27;7.47;;;;;;;;;;5020661;28;20202;-66
2022/08/19 03:55:41;;;;;;;8.70;8.00;;;;;;;;;;5037053;28;20232;-66
2022/08/19 03:58:13;;;;;;;10.40;7.27;;;;;;;;;;5046343;28;20754;-67
2022/08/19 04:00:43;;;;;;;8.80;8.03;;;;;;;;;;5080308;28;20228;-66
2022/08/19 04:03:12;;;;;;;9.23;8.53;;;;;;;;;;5066300;28;20208;-66
2022/08/19 04:05:43;;;;;;;8.97;8.17;;;;;;;;;;5083267;28;20209;-66
2022/08/19 04:08:19;;;;;;;8.33;7.63;;;;;;;;;;5070193;28;20209;-67
2022/08/19 04:11:22;;;;;;;9.17;8.37;;;;;;;;;;5074498;28;20677;-66
2022/08/19 04:14:18;;;;;;;8.47;7.67;;;;;;;;;;5079595;28;20585;-67
2022/08/19 04:17:04;;;;;;;8.60;7.80;;;;;;;;;;5086632;28;20223;-67
2022/08/19 04:19:44;;;;;;;9.13;8.33;;;;;;;;;;5079310;28;20189;-67
2022/08/19 04:22:18;;;;;;;9.27;8.37;;;;;;;;;;5083839;28;20193;-67
2022/08/19 04:24:51;;;;;;;8.97;8.27;;;;;;;;;;5078473;28;20223;-67
2022/08/19 04:27:22;;;;;;;9.03;8.33;;;;;;;;;;5086659;28;20294;-67
2022/08/19 04:30:00;;;;;;;9.17;8.27;;;;;;;;;;5052528;28;20212;-67
2022/08/19 04:32:31;;;;;;;8.80;8.10;;;;;;;;;;5061697;28;20299;-66
2022/08/19 04:35:15;;;;;;;8.60;7.80;;;;;;;;;;5085894;28;20189;-66
2022/08/19 04:37:51;;;;;;;9.40;8.60;;;;;;;;;;5093710;28;20232;-67
2022/08/19 04:43:16;;;;;;;9.33;8.53;;;;;;;;;;5083959;28;20193;-68
2022/08/19 04:45:49;;;;;;;9.60;8.80;;;;;;;;;;5074106;28;20206;-66
2022/08/19 04:48:27;;;;;;;10.17;8.87;;;;;;;;;;5075627;28;20581;-66
2022/08/19 04:51:13;;;;;;;9.87;8.97;;;;;;;;;;5076278;28;20722;-67
2022/08/19 04:53:47;;;;;;;9.77;8.97;;;;;;;;;;5076302;28;20193;-68
2022/08/19 04:56:16;;;;;;;12.07;8.67;;;;;;;;;;5074741;28;20197;-68
2022/08/19 04:58:48;;;;;;;9.47;8.67;;;;;;;;;;5079671;28;20279;-68
2022/08/19 05:01:28;;;;;;;9.03;8.23;;;;;;;;;;5059626;28;20264;-68
2022/08/19 05:04:00;;;;;;;9.13;8.33;;;;;;;;;;5062494;28;20318;-68
2022/08/19 05:06:33;;;;;;;10.60;9.50;;;;;;;;;;5083141;28;20220;-66
2022/08/19 05:09:11;;;;;;;12.17;8.37;;;;;;;;;;5065588;28;20274;-66
2022/08/19 05:11:44;;;;;;;10.87;8.90;;;;;;;;;;5079033;28;20201;-67
2022/08/19 05:14:16;;;;;;;9.97;8.97;;;;;;;;;;5058315;28;20205;-68
2022/08/19 05:16:48;;;;;;;10.83;8.43;;;;;;;;;;5072063;28;20200;-66
2022/08/19 05:22:34;;;;;;;10.63;9.40;;;;;;;;;;5062607;28;20220;-68
2022/08/19 05:25:07;;;;;;;10.63;9.50;;;;;;;;;;5069843;28;20203;-67
2022/08/19 05:27:40;;;;;;;10.60;9.60;;;;;;;;;;5085364;28;20192;-67
2022/08/19 05:30:12;;;;;;;10.80;9.90;;;;;;;;;;5073283;28;20212;-67
2022/08/19 05:32:44;;;;;;;11.27;10.13;;;;;;;;;;5069490;28;20205;-67
2022/08/19 05:35:14;;;;;;;12.20;11.00;;;;;;;;;;5081092;28;20655;-65
2022/08/19 05:37:43;;;;;;;11.50;10.50;;;;;;;;;;5074334;28;20554;-66
2022/08/19 05:40:13;;;;;;;12.57;11.27;;;;;;;;;;5077182;28;20204;-66
2022/08/19 05:42:45;;;;;;;12.67;11.57;;;;;;;;;;5067587;28;20611;-66
2022/08/19 05:45:23;;;;;;;13.93;12.53;;;;;;;;;;5086497;28;20207;-68
2022/08/19 05:47:54;;;;;;;13.27;12.07;;;;;;;;;;5078004;28;20291;-67
2022/08/19 05:50:27;;;;;;;12.60;11.60;;;;;;;;;;5079953;28;20193;-68
2022/08/19 05:52:59;;;;;;;15.10;13.60;;;;;;;;;;5071067;28;20190;-67
2022/08/19 05:55:30;;;;;;;15.63;14.23;;;;;;;;;;5082241;28;20323;-67
2022/08/19 05:58:07;;;;;;;16.63;15.13;;;;;;;;;;5059635;28;20239;-68
2022/08/19 06:00:39;;;;;;;17.80;16.13;;;;;;;;;;5080587;28;20692;-68
2022/08/19 06:03:09;;;;;;;18.83;17.13;;;;;;;;;;5082656;28;20207;-67
2022/08/19 06:05:42;;;;;;;19.80;17.83;;;;;;;;;;5083297;28;20200;-71
2022/08/19 06:08:21;;;;;;;22.93;20.37;;;;;;;;;;5076758;28;20192;-71
2022/08/19 06:11:38;;;;;;;23.83;21.53;;;;;;;;;;5077020;28;20618;-67
2022/08/19 06:14:22;;;;;;;26.57;23.87;;;;;;;;;;5008352;28;20199;-67
2022/08/19 06:16:57;;;;;;;26.17;23.47;;;;;;;;;;5071780;28;20221;-69
2022/08/19 06:19:34;;;;;;;30.83;26.00;;;;;;;;;;5064077;28;20201;-69
2022/08/19 06:22:12;;;;;;;28.57;25.50;;;;;;;;;;5083031;28;20293;-66
2022/08/19 06:24:41;;;;;;;27.83;25.23;;;;;;;;;;5072301;28;20731;-66
2022/08/19 06:27:15;;;;;;;29.63;26.73;;;;;;;;;;5077665;28;20217;-69
2022/08/19 06:29:46;;;;;;;27.10;24.40;;;;;;;;;;5086430;28;20689;-69
2022/08/19 06:32:18;;;;;;;28.63;25.83;;;;;;;;;;5067388;28;20193;-68
2022/08/19 06:34:51;;;;;;;27.37;24.77;;;;;;;;;;5047811;28;20229;-68
2022/08/19 06:37:22;;;;;;;27.33;24.53;;;;;;;;;;5070646;28;20822;-69
2022/08/19 06:40:01;;;;;;;26.23;23.47;;;;;;;;;;5062422;28;20562;-69
2022/08/19 06:42:30;;;;;;;27.77;25.10;;;;;;;;;;5081949;28;20215;-71
2022/08/19 06:45:05;;;;;;;26.37;23.87;;;;;;;;;;5073125;28;20615;-70
2022/08/19 06:47:36;;;;;;;27.17;24.57;;;;;;;;;;5086238;28;20268;-69
2022/08/19 06:50:06;;;;;;;26.57;23.67;;;;;;;;;;5075190;28;20674;-69
2022/08/19 06:52:35;;;;;;;26.23;23.50;;;;;;;;;;5084253;28;20538;-68
2022/08/19 06:55:07;;;;;;;25.90;23.43;;;;;;;;;;5064980;28;20552;-70
2022/08/19 06:57:42;;;;;;;26.57;23.97;;;;;;;;;;5083603;28;20205;-71
2022/08/19 07:00:15;;;;;;;26.23;23.63;;;;;;;;;;5078263;28;20335;-69
2022/08/19 07:02:46;;;;;;;26.47;24.00;;;;;;;;;;5084890;28;20644;-69
2022/08/19 07:05:27;;;;;;;25.60;23.07;;;;;;;;;;5074655;28;20205;-70
2022/08/19 07:07:57;;;;;;;25.43;22.83;;;;;;;;;;5080056;28;20317;-70
2022/08/19 07:10:36;;;;;;;25.63;23.07;;;;;;;;;;5085649;28;21781;-68
2022/08/19 07:13:11;;;;;;;25.93;23.27;;;;;;;;;;5057146;28;20224;-68
2022/08/19 07:15:40;;;;;;;26.00;23.30;;;;;;;;;;5054696;28;20546;-69
2022/08/19 07:18:14;;;;;;;26.03;23.20;;;;;;;;;;5080464;28;20837;-69
2022/08/19 07:20:47;;;;;;;26.10;23.60;;;;;;;;;;5082346;28;20217;-69
2022/08/19 07:23:22;;;;;;;25.57;22.97;;;;;;;;;;5082136;28;20196;-69
2022/08/19 07:25:53;;;;;;;25.37;22.87;;;;;;;;;;5077591;28;20213;-69
2022/08/19 07:28:22;;;;;;;25.10;22.40;;;;;;;;;;5073577;28;20201;-69
2022/08/19 07:31:01;;;;;;;25.97;21.90;;;;;;;;;;5076369;28;20193;-71
2022/08/19 07:33:38;;;;;;;25.03;22.43;;;;;;;;;;5067313;28;20559;-71
2022/08/19 07:36:12;;;;;;;24.47;21.87;;;;;;;;;;5070925;28;20648;-69
2022/08/19 07:38:48;;;;;;;24.00;21.60;;;;;;;;;;5063972;28;20190;-69
2022/08/19 07:41:26;;;;;;;23.23;20.73;;;;;;;;;;5088399;28;20193;-69
2022/08/19 07:44:03;;;;;;;24.20;20.90;;;;;;;;;;5065264;28;20188;-69
2022/08/19 07:46:37;;;;;;;24.47;20.57;;;;;;;;;;5082830;28;20221;-71
2022/08/19 07:49:18;;;;;;;22.53;20.13;;;;;;;;;;5071958;28;20204;-70
2022/08/19 07:51:55;;;;;;;22.77;20.33;;;;;;;;;;5083835;28;20201;-71
2022/08/19 07:54:41;;;;;;;21.80;19.60;;;;;;;;;;5076853;28;20197;-71
2022/08/19 07:57:18;;;;;;;21.93;19.67;;;;;;;;;;5073815;28;20213;-68
2022/08/19 08:00:08;;;;;;;21.67;19.37;;;;;;;;;;5077536;28;20884;-66
2022/08/19 08:02:42;;;;;;;21.70;19.50;;;;;;;;;;5087046;28;20216;-66
2022/08/19 08:11:03;;;;;;;21.50;19.30;;;;;;;;;;5071538;28;20203;-67
2022/08/19 08:13:36;;;;;;;20.83;18.73;;;;;;;;;;5080817;28;20690;-66
2022/08/19 08:16:09;;;;;;;19.53;17.40;;;;;;;;;;5082863;28;20295;-66
2022/08/19 08:18:43;;;;;;;19.10;17.17;;;;;;;;;;5085049;28;20711;-66
2022/08/19 08:21:24;;;;;;;19.90;16.17;;;;;;;;;;5075538;28;20217;-66
2022/08/19 08:24:00;;;;;;;20.37;16.30;;;;;;;;;;5077193;28;20658;-66
2022/08/19 08:26:30;;;;;;;17.40;15.23;;;;;;;;;;5085898;28;20201;-66
2022/08/19 08:29:02;;;;;;;17.70;15.80;;;;;;;;;;5088326;28;20181;-66
2022/08/19 08:31:42;;;;;;;17.33;14.63;;;;;;;;;;5079223;28;20233;-66
2022/08/19 08:34:27;;;;;;;17.90;15.63;;;;;;;;;;5079430;28;20188;-66
2022/08/19 08:36:58;;;;;;;16.60;14.57;;;;;;;;;;5078726;28;20568;-67
2022/08/19 08:39:34;;;;;;;16.03;14.17;;;;;;;;;;5087425;28;20313;-68
2022/08/19 08:42:37;;;;;;;15.93;14.17;;;;;;;;;;5080107;28;20220;-67
2022/08/19 08:45:14;;;;;;;13.90;12.37;;;;;;;;;;5071354;28;20758;-69
2022/08/19 08:48:09;;;;;;;12.60;11.30;;;;;;;;;;5067996;28;20193;-71
2022/08/19 08:50:53;;;;;;;14.43;12.17;;;;;;;;;;5080571;28;20193;-69
2022/08/19 08:53:25;;;;;;;14.17;10.80;;;;;;;;;;5078991;28;20198;-70
2022/08/19 08:56:03;;;;;;;11.27;9.90;;;;;;;;;;5078076;28;20197;-69
2022/08/19 08:58:42;;;;;;;13.63;10.07;;;;;;;;;;5054651;28;20237;-69
2022/08/19 09:01:12;;;;;;;13.03;8.93;;;;;;;;;;5062623;28;20214;-71
2022/08/19 09:03:47;;;;;;;9.07;8.17;;;;;;;;;;5043852;28;20264;-71
2022/08/19 09:06:51;;;;;;;10.77;8.73;;;;;;;;;;5062644;28;20264;-71
2022/08/19 09:09:24;;;;;;;9.50;7.53;;;;;;;;;;5066419;28;20293;-71
2022/08/19 09:12:15;;;;;;;8.97;8.07;;;;;;;;;;5058640;28;21079;-66
2022/08/19 09:14:51;;;;;;;8.93;7.97;;;;;;;;;;5070048;28;20225;-66
2022/08/19 09:17:33;;;;;;;8.80;7.90;;;;;;;;;;5083169;28;20229;-71
2022/08/19 09:20:19;;;;;;;10.33;7.17;;;;;;;;;;5060607;28;20686;-72
2022/08/19 09:22:50;;;;;;;9.63;7.70;;;;;;;;;;5068191;28;20224;-71
2022/08/19 09:25:24;;;;;;;9.97;8.90;;;;;;;;;;5063234;28;20668;-70
2022/08/19 09:28:05;;;;;;;9.23;8.10;;;;;;;;;;5066157;28;20651;-70
2022/08/19 09:30:51;;;;;;;10.10;7.63;;;;;;;;;;5068386;28;20282;-66
2022/08/19 09:33:24;;;;;;;7.67;6.60;;;;;;;;;;5056857;28;20778;-66
2022/08/19 09:36:07;;;;;;;7.73;6.83;;;;;;;;;;5051677;28;20205;-66
2022/08/19 09:38:41;;;;;;;10.27;7.67;;;;;;;;;;5067946;28;20645;-66
2022/08/19 09:41:16;;;;;;;9.67;7.90;;;;;;;;;;5062257;28;20220;-70
2022/08/19 09:43:49;;;;;;;8.57;7.77;;;;;;;;;;5053540;28;20542;-71
2022/08/19 09:46:23;;;;;;;9.47;8.33;;;;;;;;;;5063317;28;20235;-66
2022/08/19 09:48:58;;;;;;;9.97;9.07;;;;;;;;;;5058706;28;20304;-66
2022/08/19 09:51:35;;;;;;;9.57;8.60;;;;;;;;;;5064484;28;20551;-67
2022/08/19 09:54:08;;;;;;;8.87;8.07;;;;;;;;;;5071846;28;20208;-66
2022/08/19 09:56:40;;;;;;;9.83;8.93;;;;;;;;;;5096286;28;20670;-69
2022/08/19 09:59:10;;;;;;;10.10;9.10;;;;;;;;;;5071331;28;20243;-68
2022/08/19 10:01:41;;;;;;;9.87;9.07;;;;;;;;;;5066837;28;20653;-66
2022/08/19 10:04:12;;;;;;;10.23;9.23;;;;;;;;;;5060639;28;20185;-66
2022/08/19 10:06:51;;;;;;;10.57;9.67;;;;;;;;;;5073374;28;20194;-70
2022/08/19 10:09:26;;;;;;;9.40;8.50;;;;;;;;;;5068187;28;20266;-70
2022/08/19 10:12:01;;;;;;;10.07;9.17;;;;;;;;;;5073839;28;20572;-70
2022/08/19 10:14:32;;;;;;;11.10;10.00;;;;;;;;;;5084896;28;20197;-70
2022/08/19 10:17:02;;;;;;;10.57;9.67;;;;;;;;;;5071653;28;20254;-67
2022/08/19 10:19:49;;;;;;;11.20;10.10;;;;;;;;;;5064584;28;20204;-66
2022/08/19 10:22:24;;;;;;;10.60;9.70;;;;;;;;;;5073622;28;20212;-66
2022/08/19 10:25:05;;;;;;;10.70;9.67;;;;;;;;;;5060187;28;20259;-67
2022/08/19 10:27:33;;;;;;;10.20;9.30;;;;;;;;;;5082906;28;20191;-68
2022/08/19 10:30:03;;;;;;;10.47;9.47;;;;;;;;;;5079721;28;20192;-68
2022/08/19 10:32:41;;;;;;;11.87;10.70;;;;;;;;;;5071375;28;20204;-71
2022/08/19 10:35:15;;;;;;;12.10;11.00;;;;;;;;;;5081642;28;20195;-68
2022/08/19 10:37:49;;;;;;;12.20;11.10;;;;;;;;;;5070532;28;20205;-68
2022/08/19 10:40:31;;;;;;;11.07;10.13;;;;;;;;;;5063698;28;20212;-68
2022/08/19 10:43:03;;;;;;;10.73;9.80;;;;;;;;;;5084183;28;20242;-68
2022/08/19 10:45:33;;;;;;;11.07;10.07;;;;;;;;;;5075586;28;20197;-71
2022/08/19 10:48:20;;;;;;;11.93;10.70;;;;;;;;;;5077327;28;20267;-72
2022/08/19 10:53:51;;;;;;;13.67;12.57;;;;;;;;;;5084854;28;20226;-73
2022/08/19 10:59:14;;;;;;;14.20;12.70;;;;;;;;;;5075246;28;20311;-68
2022/08/19 11:01:44;;;;;;;15.03;13.53;;;;;;;;;;5066287;28;20219;-70
2022/08/19 11:04:19;;;;;;;15.17;13.27;;;;;;;;;;5068186;28;20189;-70
2022/08/19 11:06:58;;;;;;;14.77;12.13;;;;;;;;;;5081817;28;20205;-70
2022/08/19 11:09:32;;;;;;;13.83;11.83;;;;;;;;;;5086585;28;20226;-70
2022/08/19 11:12:03;;;;;;;12.23;11.17;;;;;;;;;;5060834;28;20193;-67
2022/08/19 11:14:39;;;;;;;12.50;11.30;;;;;;;;;;5071045;28;20193;-67
2022/08/19 11:17:23;;;;;;;13.67;11.23;;;;;;;;;;5085633;28;20201;-72
2022/08/19 11:19:55;;;;;;;12.13;10.87;;;;;;;;;;5082372;28;20205;-72
2022/08/19 11:22:26;;;;;;;12.60;10.73;;;;;;;;;;5086483;28;20209;-72
2022/08/19 11:25:11;;;;;;;12.50;10.17;;;;;;;;;;5073791;28;20205;-72
2022/08/19 11:27:45;;;;;;;11.33;10.23;;;;;;;;;;5069136;28;20246;-72
2022/08/19 11:30:18;;;;;;;11.77;10.57;;;;;;;;;;5084229;28;20204;-72
2022/08/19 11:33:02;;;;;;;11.47;10.37;;;;;;;;;;5086566;28;20275;-73
2022/08/19 11:35:33;;;;;;;12.53;11.23;;;;;;;;;;5094573;28;20193;-70
2022/08/19 11:38:03;;;;;;;10.93;9.83;;;;;;;;;;5080701;28;20205;-70
2022/08/19 11:40:41;;;;;;;11.07;9.97;;;;;;;;;;5086796;28;20208;-67
2022/08/19 11:43:12;;;;;;;11.70;10.50;;;;;;;;;;5067023;28;20239;-66
2022/08/19 11:45:44;;;;;;;11.30;10.10;;;;;;;;;;5086000;28;20193;-71
2022/08/19 11:48:17;;;;;;;13.13;10.07;;;;;;;;;;5078151;28;20208;-72
2022/08/19 11:50:47;;;;;;;10.77;9.77;;;;;;;;;;5086928;28;20193;-67
2022/08/19 11:53:15;;;;;;;10.90;9.80;;;;;;;;;;5086707;28;20224;-67
2022/08/19 11:55:53;;;;;;;10.80;9.80;;;;;;;;;;5088490;28;20211;-68
2022/08/19 11:58:24;;;;;;;10.60;9.60;;;;;;;;;;5086628;28;20201;-68
2022/08/19 12:01:00;;;;;;;11.40;9.40;;;;;;;;;;5072698;28;20236;-68
2022/08/19 12:03:36;;;;;;;10.37;9.13;;;;;;;;;;5071079;28;20223;-68
2022/08/19 12:06:07;;;;;;;10.87;9.87;;;;;;;;;;5080778;28;20240;-67
2022/08/19 12:08:38;;;;;;;11.67;10.47;;;;;;;;;;5086660;28;20207;-67
2022/08/19 12:11:07;;;;;;;10.27;9.20;;;;;;;;;;5067428;28;20202;-68
2022/08/19 12:13:38;;;;;;;9.37;8.47;;;;;;;;;;5065554;28;20208;-68
2022/08/19 12:16:23;;;;;;;9.37;8.47;;;;;;;;;;5065622;28;20193;-67
2022/08/19 12:19:09;;;;;;;10.23;9.17;;;;;;;;;;5086301;28;20216;-67
2022/08/19 12:21:39;;;;;;;11.07;9.97;;;;;;;;;;5070775;28;20199;-70
2022/08/19 12:24:07;;;;;;;11.53;10.43;;;;;;;;;;5061646;28;20206;-70
2022/08/19 12:26:40;;;;;;;13.30;11.83;;;;;;;;;;5085092;28;20197;-68
2022/08/19 12:29:23;;;;;;;12.20;10.90;;;;;;;;;;5088352;28;20197;-68
2022/08/19 12:31:53;;;;;;;12.97;11.60;;;;;;;;;;5049764;28;20212;-66
2022/08/19 12:34:29;;;;;;;13.67;12.27;;;;;;;;;;5080718;28;20841;-66
2022/08/19 12:37:05;;;;;;;13.87;12.57;;;;;;;;;;5084543;27;20207;-71
2022/08/19 12:39:56;;;;;;;14.97;13.43;;;;;;;;;;5080211;28;20219;-71
2022/08/19 12:42:28;;;;;;;15.60;14.00;;;;;;;;;;5081618;28;20237;-68
2022/08/19 12:45:02;;;;;;;15.30;13.47;;;;;;;;;;5086005;28;20193;-68
2022/08/19 12:47:35;;;;;;;15.13;13.53;;;;;;;;;;5086442;28;20200;-68
2022/08/19 12:50:10;;;;;;;16.60;15.00;;;;;;;;;;5066023;28;20682;-69
2022/08/19 12:52:40;;;;;;;18.40;16.37;;;;;;;;;;5089833;28;20190;-69
2022/08/19 12:55:12;;;;;;;16.07;14.53;;;;;;;;;;5073202;28;20660;-68
2022/08/19 12:57:57;;;;;;;18.33;16.53;;;;;;;;;;5082806;28;20232;-68
2022/08/19 13:00:26;;;;;;;17.93;16.07;;;;;;;;;;5059461;28;20253;-68
2022/08/19 13:02:55;;;;;;;17.73;16.03;;;;;;;;;;5065877;28;20225;-68
2022/08/19 13:05:27;;;;;;;18.33;16.07;;;;;;;;;;5082448;28;20720;-68
2022/08/19 13:08:07;;;;;;;16.80;15.00;;;;;;;;;;5069470;28;20288;-68
2022/08/19 13:10:38;;;;;;;15.93;14.27;;;;;;;;;;5088730;28;20189;-67
2022/08/19 13:13:09;;;;;;;15.87;14.27;;;;;;;;;;5084437;28;20208;-67
2022/08/19 13:15:39;;;;;;;17.13;15.37;;;;;;;;;;5081714;28;20212;-67
2022/08/19 13:18:14;;;;;;;16.93;15.33;;;;;;;;;;5042350;28;20207;-67
2022/08/19 13:20:44;;;;;;;14.93;13.63;;;;;;;;;;5070846;28;20211;-69
2022/08/19 13:23:21;;;;;;;16.73;14.07;;;;;;;;;;5068140;28;20208;-69
2022/08/19 13:25:58;;;;;;;15.93;13.57;;;;;;;;;;5069881;28;20545;-70
2022/08/19 13:34:11;;;;;;;15.83;14.23;;;;;;;;;;5080513;28;20653;-70
2022/08/19 13:36:41;;;;;;;15.73;14.30;;;;;;;;;;5068927;28;20201;-66
2022/08/19 13:39:13;;;;;;;15.40;14.00;;;;;;;;;;5061192;28;20208;-66
2022/08/19 13:41:52;;;;;;;15.30;13.67;;;;;;;;;;5055993;28;20200;-66
2022/08/19 13:44:26;;;;;;;14.67;13.27;;;;;;;;;;5077924;28;20210;-66
2022/08/19 13:47:06;;;;;;;14.40;13.00;;;;;;;;;;5080309;28;20196;-66
2022/08/19 13:49:37;;;;;;;15.20;13.80;;;;;;;;;;5066301;28;20296;-66
2022/08/19 13:52:10;;;;;;;16.10;14.50;;;;;;;;;;5083274;28;20233;-71
2022/08/19 13:54:41;;;;;;;15.23;13.83;;;;;;;;;;5079663;28;20198;-71
2022/08/19 13:57:10;;;;;;;14.43;13.10;;;;;;;;;;5087342;28;20207;-68
2022/08/19 13:59:39;;;;;;;14.03;12.63;;;;;;;;;;5078001;28;20321;-68
2022/08/19 14:02:10;;;;;;;14.77;13.27;;;;;;;;;;5056450;28;20197;-68
2022/08/19 14:04:43;;;;;;;16.43;14.83;;;;;;;;;;5053432;28;20216;-68
2022/08/19 14:07:15;;;;;;;15.00;13.40;;;;;;;;;;5060722;28;20197;-68
2022/08/19 14:09:47;;;;;;;14.43;13.03;;;;;;;;;;5064315;28;20198;-68
2022/08/19 14:12:24;;;;;;;16.30;14.57;;;;;;;;;;5059573;28;20218;-66
2022/08/19 14:14:57;;;;;;;14.27;12.90;;;;;;;;;;5062435;28;20749;-66
2022/08/19 14:17:28;;;;;;;12.93;11.67;;;;;;;;;;5066114;28;20198;-67
2022/08/19 14:20:02;;;;;;;13.33;12.10;;;;;;;;;;5058001;28;20197;-68
2022/08/19 14:22:41;;;;;;;12.63;11.43;;;;;;;;;;5057743;28;20502;-70
2022/08/19 14:25:14;;;;;;;13.57;11.67;;;;;;;;;;5057773;28;20217;-70
2022/08/19 14:27:50;;;;;;;11.37;10.33;;;;;;;;;;5058084;28;20181;-69
2022/08/19 14:30:25;;;;;;;9.63;8.73;;;;;;;;;;5060905;28;20564;-70
2022/08/19 14:33:08;;;;;;;9.57;8.10;;;;;;;;;;5062522;28;20217;-71
2022/08/19 14:35:37;;;;;;;8.27;7.53;;;;;;;;;;5055496;28;20193;-71
2022/08/19 14:38:15;;;;;;;9.63;8.77;;;;;;;;;;5059968;28;20234;-71
2022/08/19 14:40:57;;;;;;;7.93;7.13;;;;;;;;;;5053880;28;20259;-72
2022/08/19 14:43:28;;;;;;;7.63;6.93;;;;;;;;;;5060216;28;20217;-72
2022/08/19 14:46:00;;;;;;;8.80;8.00;;;;;;;;;;5056358;28;20189;-71
2022/08/19 14:48:30;;;;;;;8.57;7.77;;;;;;;;;;5055794;28;20572;-71
2022/08/19 14:50:59;;;;;;;8.57;7.77;;;;;;;;;;5056417;28;20566;-68
2022/08/19 14:53:30;;;;;;;8.67;7.83;;;;;;;;;;5061554;28;20225;-68
2022/08/19 14:56:02;;;;;;;8.47;7.67;;;;;;;;;;5050578;28;20225;-68
2022/08/19 14:58:44;;;;;;;7.67;6.87;;;;;;;;;;5060411;28;20287;-67
2022/08/19 15:01:15;;;;;;;8.73;7.07;;;;;;;;;;5044184;28;20225;-69
2022/08/19 15:03:47;;;;;;;7.97;6.70;;;;;;;;;;5063846;28;20224;-70
2022/08/19 15:06:18;;;;;;;6.87;6.27;;;;;;;;;;5047903;28;20199;-66
2022/08/19 15:08:46;;;;;;;8.47;6.70;;;;;;;;;;5068768;28;20288;-66
2022/08/19 15:11:20;;;;;;;6.87;6.10;;;;;;;;;;5056998;28;20206;-66
2022/08/19 15:13:53;;;;;;;7.80;6.30;;;;;;;;;;5037681;28;20210;-67
2022/08/19 15:16:25;;;;;;;6.63;5.93;;;;;;;;;;5056739;28;20229;-71
2022/08/19 15:18:59;;;;;;;7.13;6.43;;;;;;;;;;5042463;28;20602;-71
2022/08/19 15:21:39;;;;;;;7.43;6.83;;;;;;;;;;5048436;28;20731;-67
2022/08/19 15:24:10;;;;;;;7.47;6.70;;;;;;;;;;5051933;28;20210;-67
2022/08/19 15:26:43;;;;;;;7.83;7.13;;;;;;;;;;5045677;28;20208;-67
2022/08/19 15:29:27;;;;;;;8.47;7.67;;;;;;;;;;5062039;28;20559;-66
2022/08/19 15:32:06;;;;;;;8.23;7.43;;;;;;;;;;5062099;28;20214;-68
2022/08/19 15:34:42;;;;;;;8.47;7.67;;;;;;;;;;5043838;28;20259;-69
2022/08/19 15:37:10;;;;;;;7.07;6.50;;;;;;;;;;5057351;28;20824;-70
2022/08/19 15:39:42;;;;;;;6.67;6.07;;;;;;;;;;5062427;28;20702;-70
2022/08/19 15:42:12;;;;;;;6.67;6.10;;;;;;;;;;5043115;28;20235;-71